createdAt,value
2022-12-03T00:01:16.275Z,-0.42
2022-12-03T00:03:43.764Z,-0.42
2022-12-03T00:06:10.871Z,-142.86
2022-12-03T00:08:37.995Z,-0.45
2022-12-03T00:11:05.439Z,-0.43
2022-12-03T00:13:32.603Z,-0.47
2022-12-03T00:15:59.574Z,-0.46
2022-12-03T00:18:26.763Z,-0.44
2022-12-03T00:28:15.571Z,-0.49
2022-12-03T00:30:42.633Z,-0.48
2022-12-03T00:33:09.924Z,-0.50
2022-12-03T00:35:37.061Z,-0.49
2022-12-03T00:38:04.166Z,-0.48
2022-12-03T00:40:31.536Z,-142.86
2022-12-03T00:42:58.681Z,-0.51
2022-12-03T00:45:25.823Z,-0.51
2022-12-03T00:47:52.949Z,-0.50
2022-12-03T00:50:19.958Z,-0.49
2022-12-03T00:52:47.349Z,-142.86
2022-12-03T00:55:14.764Z,-0.48
2022-12-03T00:57:42.369Z,-0.48
2022-12-03T01:00:11.379Z,-0.47
2022-12-03T01:02:38.586Z,-0.51
2022-12-03T01:05:06.900Z,-0.49
2022-12-03T01:07:34.229Z,-0.55
2022-12-03T01:10:01.333Z,-0.53
2022-12-03T01:12:29.734Z,-0.51
2022-12-03T01:14:56.828Z,-0.51
2022-12-03T01:17:23.939Z,-0.52
2022-12-03T01:19:52.742Z,-0.52
2022-12-03T01:22:19.936Z,-0.49
2022-12-03T01:24:47.533Z,-0.50
2022-12-03T01:27:14.921Z,-142.86
2022-12-03T01:29:42.053Z,-0.52
2022-12-03T01:32:22.539Z,-0.53
2022-12-03T01:34:52.361Z,-0.50
2022-12-03T01:37:23.608Z,-0.51
2022-12-03T01:39:51.827Z,-0.51
2022-12-03T01:42:33.990Z,-0.50
2022-12-03T01:45:01.980Z,-0.50
2022-12-03T01:47:35.521Z,-0.47
2022-12-03T01:50:21.076Z,-0.53
2022-12-03T01:52:48.478Z,-0.51
2022-12-03T01:55:20.118Z,-0.51
2022-12-03T01:58:10.897Z,-0.48
2022-12-03T02:00:37.978Z,-0.51
2022-12-03T02:03:15.772Z,-0.48
2022-12-03T02:05:43.360Z,-0.52
2022-12-03T02:08:34.042Z,-0.51
2022-12-03T02:11:26.427Z,-0.49
2022-12-03T02:13:57.378Z,-0.52
2022-12-03T02:16:25.018Z,-0.50
2022-12-03T02:18:52.161Z,-0.51
2022-12-03T02:21:48.169Z,-0.50
2022-12-03T02:24:48.150Z,-0.47
2022-12-03T02:27:15.194Z,-0.50
2022-12-03T02:29:42.298Z,-0.54
2022-12-03T02:32:09.578Z,-0.54
2022-12-03T02:34:42.099Z,-0.52
2022-12-03T02:37:14.479Z,-0.52
2022-12-03T02:39:46.627Z,-0.56
2022-12-03T02:42:32.149Z,-0.59
2022-12-03T02:45:05.675Z,-0.57
2022-12-03T02:47:36.960Z,-0.54
2022-12-03T02:50:04.599Z,-0.59
2022-12-03T02:52:32.108Z,-0.52
2022-12-03T02:55:01.241Z,-0.55
2022-12-03T02:57:28.256Z,-0.55
2022-12-03T02:59:55.640Z,-0.55
2022-12-03T03:02:23.121Z,-0.55
2022-12-03T03:04:50.699Z,-0.53
2022-12-03T03:07:18.008Z,-0.53
2022-12-03T03:09:46.378Z,-0.58
2022-12-03T03:12:13.420Z,-0.55
2022-12-03T03:14:40.649Z,-0.54
2022-12-03T03:17:07.763Z,-0.55
2022-12-03T03:19:34.893Z,-0.55
2022-12-03T03:22:01.901Z,-0.54
2022-12-03T03:24:29.799Z,-0.58
2022-12-03T03:26:56.890Z,-0.58
2022-12-03T03:29:24.186Z,-0.63
2022-12-03T03:31:51.519Z,-0.60
2022-12-03T03:34:20.049Z,-96.30
2022-12-03T03:36:47.228Z,-0.63
2022-12-03T03:39:14.572Z,-0.61
2022-12-03T03:41:44.471Z,-0.63
2022-12-03T03:44:11.779Z,-142.86
2022-12-03T03:46:40.078Z,-0.61
2022-12-03T03:49:07.711Z,-0.60
2022-12-03T03:51:37.002Z,-0.58
2022-12-03T03:54:05.769Z,-0.59
2022-12-03T03:56:34.467Z,-0.58
2022-12-03T03:59:03.326Z,-0.59
2022-12-03T04:01:31.379Z,-0.60
2022-12-03T04:03:59.889Z,-0.61
2022-12-03T04:06:28.026Z,-0.61
2022-12-03T04:08:55.507Z,-0.59
2022-12-03T04:11:42.181Z,-0.58
2022-12-03T04:14:09.203Z,-0.57
2022-12-03T04:16:36.589Z,-0.57
2022-12-03T04:19:03.731Z,-0.59
2022-12-03T04:21:49.389Z,-0.56
2022-12-03T04:24:16.607Z,-0.53
2022-12-03T04:27:03.096Z,-0.53
2022-12-03T04:29:30.382Z,-0.50
2022-12-03T04:32:15.773Z,-0.52
2022-12-03T04:35:01.302Z,-0.54
2022-12-03T04:37:28.419Z,-0.54
2022-12-03T04:39:55.677Z,-0.56
2022-12-03T04:42:22.950Z,-0.56
2022-12-03T04:44:50.397Z,-0.52
2022-12-03T04:47:22.288Z,-0.55
2022-12-03T04:49:51.353Z,-0.53
2022-12-03T04:52:20.208Z,-0.53
2022-12-03T04:54:47.631Z,-0.53
2022-12-03T04:57:14.628Z,-0.54
2022-12-03T04:59:41.658Z,-0.55
2022-12-03T05:02:09.047Z,-0.50
2022-12-03T05:04:36.830Z,-0.51
2022-12-03T05:07:03.890Z,-0.51
2022-12-03T05:09:32.850Z,-0.51
2022-12-03T05:12:00.578Z,-0.51
2022-12-03T05:14:27.853Z,-0.52
2022-12-03T05:16:54.965Z,-0.52
2022-12-03T05:19:42.032Z,-0.49
2022-12-03T05:22:12.025Z,-0.49
2022-12-03T05:24:39.418Z,-0.49
2022-12-03T05:27:06.491Z,-0.51
2022-12-03T05:29:33.526Z,-142.86
2022-12-03T05:32:00.648Z,-0.49
2022-12-03T05:34:27.673Z,-0.50
2022-12-03T05:36:54.840Z,-0.50
2022-12-03T05:39:22.272Z,-0.46
2022-12-03T05:42:07.765Z,-0.49
2022-12-03T05:44:34.829Z,-0.48
2022-12-03T05:47:01.836Z,-0.48
2022-12-03T05:49:29.095Z,-0.48
2022-12-03T05:51:58.693Z,-0.47
2022-12-03T05:54:26.586Z,-0.50
2022-12-03T05:56:53.803Z,-0.47
2022-12-03T05:59:20.947Z,-0.48
2022-12-03T06:01:47.942Z,-0.48
2022-12-03T06:04:14.998Z,-0.44
2022-12-03T06:06:41.978Z,-0.44
2022-12-03T06:09:09.407Z,-0.47
2022-12-03T06:11:37.420Z,-0.46
2022-12-03T06:14:04.644Z,-0.44
2022-12-03T06:16:32.060Z,188.79
2022-12-03T06:19:00.666Z,-0.55
2022-12-03T06:21:28.764Z,-0.55
2022-12-03T06:23:55.771Z,-0.53
2022-12-03T06:26:23.165Z,-0.55
2022-12-03T06:28:50.569Z,-0.57
2022-12-03T06:31:17.665Z,-0.53
2022-12-03T06:33:44.988Z,-0.54
2022-12-03T06:36:12.058Z,-0.55
2022-12-03T06:38:39.199Z,-0.52
2022-12-03T06:41:06.554Z,-0.55
2022-12-03T06:43:33.721Z,-0.55
2022-12-03T06:46:00.970Z,-0.55
2022-12-03T06:48:28.367Z,-0.53
2022-12-03T06:50:55.540Z,-0.52
2022-12-03T06:53:22.931Z,-0.51
2022-12-03T06:55:50.319Z,-0.50
2022-12-03T06:58:17.304Z,-0.51
2022-12-03T07:00:44.328Z,-0.53
2022-12-03T07:03:11.406Z,-0.53
2022-12-03T07:05:38.602Z,-0.52
2022-12-03T07:08:06.326Z,-0.53
2022-12-03T07:10:33.629Z,-0.52
2022-12-03T07:13:00.601Z,-0.50
2022-12-03T07:15:27.695Z,-0.50
2022-12-03T07:17:54.660Z,-0.44
2022-12-03T07:20:21.974Z,-0.44
2022-12-03T07:22:48.946Z,-0.46
2022-12-03T07:25:22.641Z,-0.46
2022-12-03T07:27:50.386Z,-0.47
2022-12-03T07:30:17.636Z,-0.48
2022-12-03T07:32:44.687Z,-0.48
2022-12-03T07:35:11.728Z,-0.48
2022-12-03T07:37:39.071Z,-0.47
2022-12-03T07:40:06.982Z,-0.46
2022-12-03T07:42:34.113Z,-0.48
2022-12-03T07:45:01.063Z,-0.46
2022-12-03T07:47:28.207Z,-0.46
2022-12-03T07:49:55.199Z,-0.47
2022-12-03T07:54:49.403Z,-0.46
2022-12-03T07:57:16.656Z,-0.46
2022-12-03T07:59:43.579Z,-0.42
2022-12-03T08:02:10.935Z,-0.46
2022-12-03T08:04:38.128Z,-142.86
2022-12-03T08:07:05.333Z,-0.42
2022-12-03T08:09:32.322Z,-0.42
2022-12-03T08:12:06.956Z,-0.45
2022-12-03T08:14:34.676Z,-0.45
2022-12-03T08:17:01.757Z,-0.42
2022-12-03T08:19:28.830Z,-0.38
2022-12-03T08:22:01.028Z,-0.37
2022-12-03T08:24:30.758Z,-0.35
2022-12-03T08:26:57.865Z,-0.34
2022-12-03T08:29:25.372Z,-142.86
2022-12-03T08:31:57.318Z,-0.27
2022-12-03T08:34:27.900Z,-0.24
2022-12-03T08:37:14.481Z,-96.30
2022-12-03T08:39:46.029Z,-0.23
2022-12-03T08:42:34.794Z,-0.24
2022-12-03T08:45:30.482Z,-0.27
2022-12-03T08:48:14.001Z,-0.26
2022-12-03T08:50:43.885Z,-0.24
2022-12-03T08:53:14.385Z,-0.26
2022-12-03T08:56:03.784Z,-142.86
2022-12-03T08:58:42.358Z,-0.26
2022-12-03T09:01:12.619Z,-0.23
2022-12-03T09:03:49.388Z,-0.22
2022-12-03T09:06:16.859Z,-0.24
2022-12-03T09:08:43.810Z,-0.23
2022-12-03T09:11:11.343Z,-0.22
2022-12-03T09:13:38.292Z,-0.20
2022-12-03T09:16:06.040Z,-0.23
2022-12-03T09:18:33.723Z,-0.24
2022-12-03T09:21:01.087Z,-0.22
2022-12-03T09:23:28.240Z,-0.19
2022-12-03T09:25:55.828Z,-0.19
2022-12-03T09:28:22.891Z,-0.15
2022-12-03T09:30:50.115Z,188.79
2022-12-03T09:33:17.182Z,-0.17
2022-12-03T09:35:44.398Z,-142.86
2022-12-03T09:38:11.693Z,-142.86
2022-12-03T09:40:41.915Z,-0.14
2022-12-03T09:43:09.121Z,-0.17
2022-12-03T09:45:36.261Z,-0.16
2022-12-03T09:48:06.583Z,-0.16
2022-12-03T09:50:33.805Z,-0.12
2022-12-03T09:53:03.973Z,-0.11
2022-12-03T09:55:32.222Z,-0.15
2022-12-03T09:58:00.815Z,-0.12
2022-12-03T10:00:30.416Z,-0.11
2022-12-03T10:03:01.730Z,-0.13
2022-12-03T10:05:29.597Z,-0.10
2022-12-03T10:08:04.619Z,-0.05
2022-12-03T10:10:34.986Z,-0.04
2022-12-03T10:13:02.474Z,-0.04
2022-12-03T10:15:30.294Z,-0.04
2022-12-03T10:17:58.954Z,-0.03
2022-12-03T10:20:26.868Z,-0.04
2022-12-03T10:22:54.127Z,-0.05
2022-12-03T10:25:23.168Z,-0.03
2022-12-03T10:28:06.087Z,-0.02
2022-12-03T10:30:33.224Z,0.00
2022-12-03T10:33:15.855Z,0.01
2022-12-03T10:35:45.850Z,0.03
2022-12-03T10:38:25.011Z,0.02
2022-12-03T10:40:52.158Z,0.03
2022-12-03T10:43:19.725Z,0.05
2022-12-03T10:45:52.208Z,0.05
2022-12-03T10:48:22.065Z,0.07
2022-12-03T10:51:13.666Z,0.08
2022-12-03T10:54:01.968Z,0.10
2022-12-03T10:56:29.559Z,0.07
2022-12-03T10:58:56.902Z,0.09
2022-12-03T11:01:26.538Z,0.10
2022-12-03T11:03:56.894Z,0.10
2022-12-03T11:06:24.294Z,0.10
2022-12-03T11:08:58.388Z,0.09
2022-12-03T11:11:30.661Z,0.13
2022-12-03T11:14:02.843Z,0.13
2022-12-03T11:16:40.007Z,0.13
2022-12-03T11:19:13.163Z,0.15
2022-12-03T11:22:05.283Z,0.16
2022-12-03T11:24:37.388Z,0.15
2022-12-03T11:27:04.811Z,0.16
2022-12-03T11:30:01.439Z,0.19
2022-12-03T11:32:38.058Z,0.20
2022-12-03T11:35:26.020Z,0.26
2022-12-03T11:37:53.265Z,0.26
2022-12-03T11:40:20.502Z,0.25
2022-12-03T11:42:49.179Z,0.25
2022-12-03T11:45:30.523Z,0.27
2022-12-03T11:48:03.220Z,0.27
2022-12-03T11:50:40.148Z,0.30
2022-12-03T11:53:20.762Z,0.35
2022-12-03T11:55:52.340Z,0.35
2022-12-03T11:58:27.458Z,0.37
2022-12-03T12:00:57.277Z,-142.86
2022-12-03T12:03:27.854Z,0.36
2022-12-03T12:06:09.729Z,0.35
2022-12-03T12:08:57.133Z,0.37
2022-12-03T12:11:30.151Z,0.40
2022-12-03T12:13:58.574Z,0.34
2022-12-03T12:16:55.320Z,0.35
2022-12-03T12:19:31.827Z,0.35
2022-12-03T12:22:25.273Z,0.35
2022-12-03T12:24:57.065Z,0.35
2022-12-03T12:27:35.565Z,0.37
2022-12-03T12:30:13.075Z,0.37
2022-12-03T12:32:48.621Z,0.36
2022-12-03T12:35:15.651Z,0.36
2022-12-03T12:37:56.808Z,0.38
2022-12-03T12:40:29.493Z,0.37
2022-12-03T12:43:33.930Z,0.41
2022-12-03T12:46:38.615Z,0.40
2022-12-03T12:48:59.713Z,0.40
2022-12-03T12:51:27.237Z,0.42
2022-12-03T12:53:54.470Z,0.40
2022-12-03T12:56:30.363Z,0.38
2022-12-03T12:59:14.041Z,0.41
2022-12-03T13:01:43.545Z,0.43
2022-12-03T13:04:14.138Z,0.41
2022-12-03T13:06:42.176Z,0.37
2022-12-03T13:09:17.337Z,0.40
2022-12-03T13:11:47.143Z,0.42
2022-12-03T13:14:25.742Z,0.39
2022-12-03T13:16:55.377Z,0.40
2022-12-03T13:19:29.796Z,0.38
2022-12-03T13:22:17.353Z,0.38
2022-12-03T13:24:48.025Z,0.37
2022-12-03T13:27:18.420Z,0.40
2022-12-03T13:30:13.889Z,0.39
2022-12-03T13:32:42.704Z,0.41
2022-12-03T13:35:26.855Z,0.38
2022-12-03T13:37:54.103Z,0.35
2022-12-03T13:40:31.751Z,0.35
2022-12-03T13:42:59.706Z,0.37
2022-12-03T13:45:31.140Z,0.33
2022-12-03T13:48:01.763Z,0.33
2022-12-03T13:50:41.517Z,0.35
2022-12-03T13:53:11.413Z,0.32
2022-12-03T13:55:43.236Z,0.34
2022-12-03T13:58:10.385Z,0.30
2022-12-03T14:00:37.837Z,-142.86
2022-12-03T14:03:07.877Z,0.32
2022-12-03T14:05:35.219Z,0.33
2022-12-03T14:08:03.060Z,0.35
2022-12-03T14:10:30.852Z,0.31
2022-12-03T14:12:58.309Z,0.30
2022-12-03T14:15:26.745Z,0.30
2022-12-03T14:17:54.108Z,0.32
2022-12-03T14:20:21.461Z,0.32
2022-12-03T14:22:48.723Z,0.30
2022-12-03T14:25:16.467Z,0.33
2022-12-03T14:27:43.730Z,0.35
2022-12-03T14:30:11.647Z,0.33
2022-12-03T14:32:38.836Z,0.32
2022-12-03T14:35:15.191Z,0.32
2022-12-03T14:37:42.358Z,0.30
2022-12-03T14:40:10.255Z,0.34
2022-12-03T14:42:37.670Z,0.32
2022-12-03T14:45:05.189Z,-142.86
2022-12-03T14:47:32.378Z,0.34
2022-12-03T14:50:00.498Z,0.34
2022-12-03T14:52:27.751Z,0.29
2022-12-03T14:54:55.350Z,0.30
2022-12-03T14:57:22.691Z,0.30
2022-12-03T14:59:49.999Z,0.27
2022-12-03T15:02:17.355Z,0.28
2022-12-03T15:04:44.798Z,0.27
2022-12-03T15:07:11.957Z,0.24
2022-12-03T15:09:39.137Z,0.23
2022-12-03T15:12:06.811Z,0.21
2022-12-03T15:14:34.165Z,0.24
2022-12-03T15:17:01.608Z,0.24
2022-12-03T15:19:28.777Z,0.22
2022-12-03T15:21:55.941Z,0.24
2022-12-03T15:24:23.539Z,0.22
2022-12-03T15:26:53.680Z,0.23
2022-12-03T15:29:21.173Z,0.23
2022-12-03T15:31:51.344Z,0.26
2022-12-03T15:34:22.473Z,0.25
2022-12-03T15:36:50.306Z,-142.86
2022-12-03T15:39:17.758Z,0.25
2022-12-03T15:41:45.031Z,0.26
2022-12-03T15:44:12.362Z,0.26
2022-12-03T15:46:39.631Z,0.27
2022-12-03T15:49:07.078Z,0.27
2022-12-03T15:51:34.326Z,0.26
2022-12-03T15:54:01.514Z,0.26
2022-12-03T15:56:29.069Z,0.27
2022-12-03T15:58:56.256Z,0.29
2022-12-03T16:01:23.564Z,0.29
2022-12-03T16:03:50.854Z,0.32
2022-12-03T16:06:19.901Z,0.31
2022-12-03T16:08:48.492Z,0.32
2022-12-03T16:11:16.060Z,0.37
2022-12-03T16:13:43.675Z,0.34
2022-12-03T16:16:10.846Z,0.34
2022-12-03T16:18:38.095Z,0.34
2022-12-03T16:21:05.478Z,0.34
2022-12-03T16:23:32.746Z,0.34
2022-12-03T16:26:00.363Z,0.33
2022-12-03T16:28:27.717Z,0.36
2022-12-03T16:30:54.987Z,0.37
2022-12-03T16:33:27.218Z,0.32
2022-12-03T16:35:55.297Z,0.34
2022-12-03T16:38:22.518Z,0.37
2022-12-03T16:40:50.106Z,0.35
2022-12-03T16:43:17.416Z,0.34
2022-12-03T16:46:20.299Z,0.38
2022-12-03T16:48:48.568Z,0.29
2022-12-03T16:51:16.763Z,0.30
2022-12-03T16:53:44.110Z,0.32
2022-12-03T16:56:11.877Z,0.31
2022-12-03T16:58:39.352Z,0.28
2022-12-03T17:01:07.407Z,0.23
2022-12-03T17:03:34.734Z,0.24
2022-12-03T17:06:02.697Z,0.24
2022-12-03T17:08:30.091Z,0.25
2022-12-03T17:10:57.930Z,188.79
2022-12-03T17:13:25.366Z,0.27
2022-12-03T17:15:52.568Z,0.32
2022-12-03T17:18:20.087Z,0.29
2022-12-03T17:20:47.364Z,0.31
2022-12-03T17:23:14.674Z,0.31
2022-12-03T17:25:42.321Z,0.29
2022-12-03T17:28:09.710Z,0.31
2022-12-03T17:30:37.649Z,0.31
2022-12-03T17:33:05.380Z,0.31
2022-12-03T17:35:32.608Z,0.33
2022-12-03T17:37:59.953Z,0.33
2022-12-03T17:40:27.629Z,0.28
2022-12-03T17:42:54.848Z,0.28
2022-12-03T17:45:22.829Z,0.29
2022-12-03T17:47:50.156Z,-142.86
2022-12-03T17:50:17.533Z,-142.86
2022-12-03T17:52:44.850Z,-142.86
2022-12-03T17:55:19.861Z,-142.86
2022-12-03T17:57:51.241Z,-142.86
2022-12-03T18:00:19.072Z,-142.86
2022-12-03T18:02:46.323Z,-142.86
2022-12-03T18:05:14.400Z,-142.86
2022-12-03T18:07:41.678Z,-142.86
2022-12-03T18:10:09.437Z,-142.86
2022-12-03T18:12:36.907Z,-142.86
2022-12-03T18:15:04.463Z,-142.86
2022-12-03T18:17:31.652Z,-142.86
2022-12-03T18:19:59.032Z,-142.86
2022-12-03T18:22:27.940Z,-142.86
2022-12-03T18:24:55.839Z,-142.86
2022-12-03T18:27:24.269Z,-142.86
2022-12-03T18:29:52.970Z,-142.86
2022-12-03T18:32:28.796Z,-142.86
2022-12-03T18:34:57.178Z,-142.86
2022-12-03T18:37:28.096Z,-142.86
2022-12-03T18:39:57.575Z,-142.86
2022-12-03T18:42:26.551Z,-142.86
2022-12-03T18:44:56.473Z,-142.86
2022-12-03T18:47:27.085Z,-142.86
2022-12-03T18:49:55.501Z,-142.86
2022-12-03T18:52:25.264Z,-142.86
2022-12-03T18:54:55.507Z,-142.86
2022-12-03T18:57:22.699Z,-142.86
2022-12-03T18:59:50.025Z,-142.86
2022-12-03T19:03:00.700Z,-142.86
2022-12-03T19:05:07.742Z,-142.86
2022-12-03T19:07:35.260Z,-142.86
2022-12-03T19:10:02.742Z,-142.86
2022-12-03T19:12:31.322Z,-142.86
2022-12-03T19:14:58.575Z,-142.86
2022-12-03T19:17:27.458Z,-142.86
2022-12-03T19:19:55.482Z,-142.86
2022-12-03T19:22:23.827Z,-142.86
2022-12-03T19:24:51.331Z,-142.86
2022-12-03T19:27:19.401Z,-142.86
2022-12-03T19:29:49.851Z,-142.86
2022-12-03T19:32:17.137Z,-142.86
2022-12-03T19:34:44.344Z,-142.86
2022-12-03T19:37:11.611Z,-142.86
2022-12-03T19:39:39.200Z,-142.86
2022-12-03T19:42:06.423Z,-142.86
2022-12-03T19:44:33.912Z,-142.86
2022-12-03T19:47:01.103Z,-142.86
2022-12-03T19:49:28.338Z,-142.86
2022-12-03T19:51:55.783Z,-142.86
2022-12-03T19:54:24.254Z,-142.86
2022-12-03T19:56:51.528Z,-142.86
2022-12-03T19:59:18.863Z,-142.86
2022-12-03T20:01:46.447Z,-142.86
2022-12-03T20:04:13.858Z,-142.86
2022-12-03T20:06:41.381Z,-142.86
2022-12-03T20:09:12.221Z,-142.86
2022-12-03T20:11:41.880Z,-142.86
2022-12-03T20:14:12.708Z,-142.86
2022-12-03T20:16:40.040Z,-142.86
2022-12-03T20:19:08.652Z,-142.86
2022-12-03T20:21:37.645Z,-142.86
2022-12-03T20:24:05.669Z,-142.86
2022-12-03T20:26:33.548Z,-142.86
2022-12-03T20:29:01.053Z,-142.86
2022-12-03T20:31:30.615Z,-142.86
2022-12-03T20:34:01.049Z,-142.86
2022-12-03T20:36:30.327Z,-142.86
2022-12-03T20:39:01.008Z,-142.86
2022-12-03T20:41:29.391Z,-142.86
2022-12-03T20:43:56.965Z,-142.86
2022-12-03T20:46:27.509Z,-142.86
2022-12-03T20:48:55.369Z,-142.86
2022-12-03T20:51:27.847Z,-142.86
2022-12-03T20:53:55.071Z,-142.86
2022-12-03T20:56:28.443Z,-142.86
2022-12-03T20:58:55.633Z,-142.86
2022-12-03T21:01:26.621Z,-142.86
2022-12-03T21:03:55.729Z,-142.86
2022-12-03T21:06:25.920Z,-142.86
2022-12-03T21:08:54.549Z,-142.86
2022-12-03T21:11:24.685Z,-142.86
2022-12-03T21:13:54.052Z,-142.86
2022-12-03T21:16:45.543Z,-142.86
2022-12-03T21:19:11.492Z,-142.86
2022-12-03T21:21:38.954Z,-142.86
2022-12-03T21:24:06.544Z,-142.86
2022-12-03T21:26:34.158Z,-142.86
2022-12-03T21:29:01.365Z,-142.86
2022-12-03T21:31:30.585Z,-142.86
2022-12-03T21:33:58.519Z,-142.86
2022-12-03T21:36:26.324Z,-142.86
2022-12-03T21:38:53.786Z,-142.86
2022-12-03T21:41:21.319Z,-142.86
2022-12-03T21:43:48.613Z,-142.86
2022-12-03T21:47:10.409Z,-142.86
2022-12-03T21:49:04.602Z,-142.86
2022-12-03T21:51:31.814Z,-142.86
2022-12-03T21:53:59.034Z,-142.86
2022-12-03T21:56:26.554Z,-142.86
2022-12-03T21:58:53.753Z,-142.86
2022-12-03T22:01:23.197Z,-142.86
2022-12-03T22:03:53.290Z,-142.86
2022-12-03T22:06:20.833Z,-142.86
2022-12-03T22:08:51.304Z,-142.86
2022-12-03T22:11:22.030Z,-142.86
2022-12-03T22:13:49.735Z,-142.86
2022-12-03T22:16:20.294Z,-142.86
2022-12-03T22:18:47.932Z,-142.86
2022-12-03T22:21:18.562Z,-142.86
2022-12-03T22:23:46.219Z,-142.86
2022-12-03T22:26:17.341Z,-142.86
2022-12-03T22:28:47.928Z,-142.86
2022-12-03T22:31:17.899Z,-142.86
2022-12-03T22:33:48.554Z,-142.86
2022-12-03T22:36:21.039Z,-142.86
2022-12-03T22:38:50.105Z,-142.86
2022-12-03T22:41:18.568Z,-142.86
2022-12-03T22:43:47.711Z,-142.86
2022-12-03T22:46:15.558Z,-142.86
2022-12-03T22:48:44.831Z,-142.86
2022-12-03T22:51:23.485Z,-142.86
2022-12-03T22:53:55.830Z,-142.86
2022-12-03T22:56:24.003Z,-142.86
2022-12-03T22:58:51.518Z,-142.86
2022-12-03T23:01:25.897Z,-142.86
2022-12-03T23:03:53.083Z,-142.86
2022-12-03T23:06:21.192Z,-142.86
2022-12-03T23:08:49.232Z,-142.86
2022-12-03T23:11:17.948Z,-142.86
2022-12-03T23:13:45.840Z,-142.86
2022-12-03T23:16:16.952Z,-142.86
2022-12-03T23:18:44.287Z,-142.86
2022-12-03T23:21:34.421Z,-142.86
2022-12-03T23:24:04.541Z,-142.86
2022-12-03T23:26:39.570Z,-142.86
2022-12-03T23:29:06.761Z,-142.86
2022-12-03T23:31:34.566Z,-142.86
2022-12-03T23:34:02.408Z,-142.86
2022-12-03T23:36:31.857Z,-142.86
2022-12-03T23:38:59.107Z,-142.86
2022-12-03T23:41:26.677Z,-142.86
2022-12-03T23:43:54.158Z,-142.86
2022-12-03T23:46:24.332Z,-142.86
2022-12-03T23:48:52.005Z,-142.86
2022-12-03T23:51:22.365Z,-142.86
2022-12-03T23:53:50.090Z,-142.86
2022-12-03T23:56:21.006Z,-142.86
2022-12-03T23:58:48.766Z,-142.86
